sensor_id;sensor_type;location;lat;lon;timestamp;P1;durP1;ratioP1;P2;durP2;ratioP2
58820;SDS011;70670;52.476;13.334;2024-03-07T00:02:13;147.48;;;49.13;;
58820;SDS011;70670;52.476;13.334;2024-03-07T00:04:39;150.70;;;47.83;;
58820;SDS011;70670;52.476;13.334;2024-03-07T00:07:04;143.95;;;46.35;;
58820;SDS011;70670;52.476;13.334;2024-03-07T00:09:34;133.57;;;46.63;;
58820;SDS011;70670;52.476;13.334;2024-03-07T00:12:00;139.50;;;46.42;;
58820;SDS011;70670;52.476;13.334;2024-03-07T00:14:27;143.27;;;47.22;;
58820;SDS011;70670;52.476;13.334;2024-03-07T00:16:53;138.88;;;47.95;;
58820;SDS011;70670;52.476;13.334;2024-03-07T00:19:19;150.40;;;49.15;;
58820;SDS011;70670;52.476;13.334;2024-03-07T00:21:46;155.02;;;48.33;;
58820;SDS011;70670;52.476;13.334;2024-03-07T00:24:12;142.20;;;46.55;;
58820;SDS011;70670;52.476;13.334;2024-03-07T00:26:39;147.63;;;48.35;;
58820;SDS011;70670;52.476;13.334;2024-03-07T00:29:06;153.00;;;48.58;;
58820;SDS011;70670;52.476;13.334;2024-03-07T00:31:32;151.05;;;48.60;;
58820;SDS011;70670;52.476;13.334;2024-03-07T00:33:58;152.75;;;46.92;;
58820;SDS011;70670;52.476;13.334;2024-03-07T00:36:24;146.52;;;48.20;;
58820;SDS011;70670;52.476;13.334;2024-03-07T00:38:54;144.90;;;46.92;;
58820;SDS011;70670;52.476;13.334;2024-03-07T00:41:19;141.27;;;46.80;;
58820;SDS011;70670;52.476;13.334;2024-03-07T00:43:45;142.05;;;47.55;;
58820;SDS011;70670;52.476;13.334;2024-03-07T00:46:12;148.25;;;47.45;;
58820;SDS011;70670;52.476;13.334;2024-03-07T00:48:37;143.73;;;46.67;;
58820;SDS011;70670;52.476;13.334;2024-03-07T00:51:06;146.85;;;46.92;;
58820;SDS011;70670;52.476;13.334;2024-03-07T00:53:32;144.95;;;47.05;;
58820;SDS011;70670;52.476;13.334;2024-03-07T00:55:57;141.88;;;45.65;;
58820;SDS011;70670;52.476;13.334;2024-03-07T00:58:23;140.82;;;45.45;;
58820;SDS011;70670;52.476;13.334;2024-03-07T01:00:49;127.93;;;45.45;;
58820;SDS011;70670;52.476;13.334;2024-03-07T01:03:15;138.48;;;45.60;;
58820;SDS011;70670;52.476;13.334;2024-03-07T01:05:42;131.80;;;43.67;;
58820;SDS011;70670;52.476;13.334;2024-03-07T01:08:09;136.98;;;43.15;;
58820;SDS011;70670;52.476;13.334;2024-03-07T01:10:34;129.25;;;47.03;;
58820;SDS011;70670;52.476;13.334;2024-03-07T01:13:00;136.18;;;44.03;;
58820;SDS011;70670;52.476;13.334;2024-03-07T01:15:27;128.10;;;43.42;;
58820;SDS011;70670;52.476;13.334;2024-03-07T01:17:54;129.68;;;43.47;;
58820;SDS011;70670;52.476;13.334;2024-03-07T01:20:19;132.88;;;42.58;;
58820;SDS011;70670;52.476;13.334;2024-03-07T01:22:46;130.18;;;42.67;;
58820;SDS011;70670;52.476;13.334;2024-03-07T01:25:12;135.88;;;43.53;;
58820;SDS011;70670;52.476;13.334;2024-03-07T01:27:38;123.72;;;41.88;;
58820;SDS011;70670;52.476;13.334;2024-03-07T01:30:04;139.98;;;42.50;;
58820;SDS011;70670;52.476;13.334;2024-03-07T01:32:33;126.63;;;42.63;;
58820;SDS011;70670;52.476;13.334;2024-03-07T01:34:59;124.72;;;42.72;;
58820;SDS011;70670;52.476;13.334;2024-03-07T01:37:24;126.70;;;43.30;;
58820;SDS011;70670;52.476;13.334;2024-03-07T01:39:50;118.68;;;42.75;;
58820;SDS011;70670;52.476;13.334;2024-03-07T01:42:16;117.60;;;41.65;;
58820;SDS011;70670;52.476;13.334;2024-03-07T01:44:41;117.60;;;39.97;;
58820;SDS011;70670;52.476;13.334;2024-03-07T01:47:09;120.47;;;40.67;;
58820;SDS011;70670;52.476;13.334;2024-03-07T01:49:35;112.72;;;38.90;;
58820;SDS011;70670;52.476;13.334;2024-03-07T01:52:02;115.47;;;40.25;;
58820;SDS011;70670;52.476;13.334;2024-03-07T01:54:30;123.80;;;38.58;;
58820;SDS011;70670;52.476;13.334;2024-03-07T01:56:56;131.90;;;43.80;;
58820;SDS011;70670;52.476;13.334;2024-03-07T01:59:22;104.60;;;40.03;;
58820;SDS011;70670;52.476;13.334;2024-03-07T02:01:49;119.10;;;39.38;;
58820;SDS011;70670;52.476;13.334;2024-03-07T02:04:15;119.53;;;39.38;;
58820;SDS011;70670;52.476;13.334;2024-03-07T02:06:41;130.23;;;40.80;;
58820;SDS011;70670;52.476;13.334;2024-03-07T02:09:07;113.00;;;39.72;;
58820;SDS011;70670;52.476;13.334;2024-03-07T02:11:33;123.88;;;40.40;;
58820;SDS011;70670;52.476;13.334;2024-03-07T02:13:58;133.13;;;42.70;;
58820;SDS011;70670;52.476;13.334;2024-03-07T02:16:24;127.20;;;41.20;;
58820;SDS011;70670;52.476;13.334;2024-03-07T02:18:50;121.45;;;42.85;;
58820;SDS011;70670;52.476;13.334;2024-03-07T02:21:16;129.98;;;42.20;;
58820;SDS011;70670;52.476;13.334;2024-03-07T02:23:42;109.20;;;39.70;;
58820;SDS011;70670;52.476;13.334;2024-03-07T02:26:08;117.00;;;40.28;;
58820;SDS011;70670;52.476;13.334;2024-03-07T02:28:33;110.60;;;39.88;;
58820;SDS011;70670;52.476;13.334;2024-03-07T02:31:00;107.60;;;38.83;;
58820;SDS011;70670;52.476;13.334;2024-03-07T02:33:26;110.93;;;39.38;;
58820;SDS011;70670;52.476;13.334;2024-03-07T02:35:52;109.80;;;40.10;;
58820;SDS011;70670;52.476;13.334;2024-03-07T02:38:18;121.28;;;41.72;;
58820;SDS011;70670;52.476;13.334;2024-03-07T02:40:44;110.53;;;40.53;;
58820;SDS011;70670;52.476;13.334;2024-03-07T02:43:11;116.43;;;41.85;;
58820;SDS011;70670;52.476;13.334;2024-03-07T02:45:37;110.93;;;39.47;;
58820;SDS011;70670;52.476;13.334;2024-03-07T02:48:03;116.50;;;39.92;;
58820;SDS011;70670;52.476;13.334;2024-03-07T02:50:30;106.47;;;39.88;;
58820;SDS011;70670;52.476;13.334;2024-03-07T02:52:56;121.03;;;40.05;;
58820;SDS011;70670;52.476;13.334;2024-03-07T02:55:22;121.93;;;41.75;;
58820;SDS011;70670;52.476;13.334;2024-03-07T02:57:47;118.35;;;41.83;;
58820;SDS011;70670;52.476;13.334;2024-03-07T03:00:14;111.82;;;41.67;;
58820;SDS011;70670;52.476;13.334;2024-03-07T03:02:48;119.18;;;42.42;;
58820;SDS011;70670;52.476;13.334;2024-03-07T03:05:14;125.45;;;42.58;;
58820;SDS011;70670;52.476;13.334;2024-03-07T03:07:41;123.55;;;44.70;;
58820;SDS011;70670;52.476;13.334;2024-03-07T03:10:07;117.32;;;41.55;;
58820;SDS011;70670;52.476;13.334;2024-03-07T03:12:36;122.05;;;42.95;;
58820;SDS011;70670;52.476;13.334;2024-03-07T03:15:03;133.10;;;42.45;;
58820;SDS011;70670;52.476;13.334;2024-03-07T03:17:30;109.75;;;41.42;;
58820;SDS011;70670;52.476;13.334;2024-03-07T03:19:56;113.13;;;42.58;;
58820;SDS011;70670;52.476;13.334;2024-03-07T03:22:21;117.75;;;39.83;;
58820;SDS011;70670;52.476;13.334;2024-03-07T03:24:47;114.57;;;41.63;;
58820;SDS011;70670;52.476;13.334;2024-03-07T03:27:13;109.90;;;41.60;;
58820;SDS011;70670;52.476;13.334;2024-03-07T03:29:39;105.78;;;42.13;;
58820;SDS011;70670;52.476;13.334;2024-03-07T03:32:05;107.22;;;42.10;;
58820;SDS011;70670;52.476;13.334;2024-03-07T03:34:33;110.90;;;42.53;;
58820;SDS011;70670;52.476;13.334;2024-03-07T03:36:59;106.53;;;42.30;;
58820;SDS011;70670;52.476;13.334;2024-03-07T03:39:24;99.00;;;41.65;;
58820;SDS011;70670;52.476;13.334;2024-03-07T03:41:52;114.68;;;43.15;;
58820;SDS011;70670;52.476;13.334;2024-03-07T03:44:18;108.97;;;42.33;;
58820;SDS011;70670;52.476;13.334;2024-03-07T03:46:43;110.05;;;43.28;;
58820;SDS011;70670;52.476;13.334;2024-03-07T03:49:09;100.22;;;42.00;;
58820;SDS011;70670;52.476;13.334;2024-03-07T03:51:35;106.78;;;41.38;;
58820;SDS011;70670;52.476;13.334;2024-03-07T03:54:01;110.32;;;41.88;;
58820;SDS011;70670;52.476;13.334;2024-03-07T03:56:27;112.20;;;42.08;;
58820;SDS011;70670;52.476;13.334;2024-03-07T03:58:53;99.03;;;41.00;;
58820;SDS011;70670;52.476;13.334;2024-03-07T04:01:19;106.25;;;41.35;;
58820;SDS011;70670;52.476;13.334;2024-03-07T04:03:44;94.25;;;40.10;;
58820;SDS011;70670;52.476;13.334;2024-03-07T04:06:12;100.13;;;40.88;;
58820;SDS011;70670;52.476;13.334;2024-03-07T04:08:37;101.38;;;40.72;;
58820;SDS011;70670;52.476;13.334;2024-03-07T04:11:03;104.72;;;41.58;;
58820;SDS011;70670;52.476;13.334;2024-03-07T04:13:30;98.97;;;41.13;;
58820;SDS011;70670;52.476;13.334;2024-03-07T04:15:56;108.07;;;41.28;;
58820;SDS011;70670;52.476;13.334;2024-03-07T04:18:22;101.65;;;40.17;;
58820;SDS011;70670;52.476;13.334;2024-03-07T04:20:48;95.60;;;39.08;;
58820;SDS011;70670;52.476;13.334;2024-03-07T04:23:14;89.63;;;38.53;;
58820;SDS011;70670;52.476;13.334;2024-03-07T04:25:39;90.05;;;37.30;;
58820;SDS011;70670;52.476;13.334;2024-03-07T04:28:05;86.22;;;38.00;;
58820;SDS011;70670;52.476;13.334;2024-03-07T04:30:30;86.65;;;37.67;;
58820;SDS011;70670;52.476;13.334;2024-03-07T04:32:56;87.43;;;37.83;;
58820;SDS011;70670;52.476;13.334;2024-03-07T04:35:23;88.85;;;38.08;;
58820;SDS011;70670;52.476;13.334;2024-03-07T04:37:49;88.20;;;37.53;;
58820;SDS011;70670;52.476;13.334;2024-03-07T04:40:15;91.80;;;38.75;;
58820;SDS011;70670;52.476;13.334;2024-03-07T04:42:45;85.38;;;38.25;;
58820;SDS011;70670;52.476;13.334;2024-03-07T04:45:11;86.68;;;36.47;;
58820;SDS011;70670;52.476;13.334;2024-03-07T04:47:39;81.75;;;36.35;;
58820;SDS011;70670;52.476;13.334;2024-03-07T04:50:06;82.25;;;35.78;;
58820;SDS011;70670;52.476;13.334;2024-03-07T04:52:34;78.43;;;36.33;;
58820;SDS011;70670;52.476;13.334;2024-03-07T04:55:00;81.25;;;36.30;;
58820;SDS011;70670;52.476;13.334;2024-03-07T04:57:26;80.35;;;37.28;;
58820;SDS011;70670;52.476;13.334;2024-03-07T04:59:52;77.15;;;34.25;;
58820;SDS011;70670;52.476;13.334;2024-03-07T05:02:18;82.03;;;36.60;;
58820;SDS011;70670;52.476;13.334;2024-03-07T05:04:43;80.72;;;35.60;;
58820;SDS011;70670;52.476;13.334;2024-03-07T05:07:09;74.32;;;35.47;;
58820;SDS011;70670;52.476;13.334;2024-03-07T05:09:34;81.63;;;35.70;;
58820;SDS011;70670;52.476;13.334;2024-03-07T05:12:00;72.32;;;36.70;;
58820;SDS011;70670;52.476;13.334;2024-03-07T05:14:26;70.47;;;34.75;;
58820;SDS011;70670;52.476;13.334;2024-03-07T05:16:52;72.82;;;34.58;;
58820;SDS011;70670;52.476;13.334;2024-03-07T05:19:33;77.82;;;35.50;;
58820;SDS011;70670;52.476;13.334;2024-03-07T05:22:00;82.35;;;36.33;;
58820;SDS011;70670;52.476;13.334;2024-03-07T05:24:26;73.57;;;35.28;;
58820;SDS011;70670;52.476;13.334;2024-03-07T05:26:52;75.68;;;34.65;;
58820;SDS011;70670;52.476;13.334;2024-03-07T05:29:19;76.55;;;35.28;;
58820;SDS011;70670;52.476;13.334;2024-03-07T05:31:45;70.90;;;33.70;;
58820;SDS011;70670;52.476;13.334;2024-03-07T05:34:14;70.10;;;33.80;;
58820;SDS011;70670;52.476;13.334;2024-03-07T05:36:40;72.80;;;34.20;;
58820;SDS011;70670;52.476;13.334;2024-03-07T05:41:37;77.15;;;34.38;;
58820;SDS011;70670;52.476;13.334;2024-03-07T05:44:02;67.63;;;33.83;;
58820;SDS011;70670;52.476;13.334;2024-03-07T05:46:29;69.72;;;34.00;;
58820;SDS011;70670;52.476;13.334;2024-03-07T05:48:55;70.30;;;34.33;;
58820;SDS011;70670;52.476;13.334;2024-03-07T05:51:25;66.03;;;33.28;;
58820;SDS011;70670;52.476;13.334;2024-03-07T05:53:50;69.50;;;34.17;;
58820;SDS011;70670;52.476;13.334;2024-03-07T05:56:17;74.95;;;33.47;;
58820;SDS011;70670;52.476;13.334;2024-03-07T05:58:42;83.35;;;35.00;;
58820;SDS011;70670;52.476;13.334;2024-03-07T06:01:08;73.75;;;34.05;;
58820;SDS011;70670;52.476;13.334;2024-03-07T06:03:34;71.57;;;35.30;;
58820;SDS011;70670;52.476;13.334;2024-03-07T06:06:00;77.80;;;34.33;;
58820;SDS011;70670;52.476;13.334;2024-03-07T06:08:26;77.22;;;33.47;;
58820;SDS011;70670;52.476;13.334;2024-03-07T06:10:52;69.03;;;33.78;;
58820;SDS011;70670;52.476;13.334;2024-03-07T06:13:18;71.63;;;33.17;;
58820;SDS011;70670;52.476;13.334;2024-03-07T06:15:44;79.18;;;33.67;;
58820;SDS011;70670;52.476;13.334;2024-03-07T06:18:11;83.20;;;35.78;;
58820;SDS011;70670;52.476;13.334;2024-03-07T06:20:39;76.55;;;32.90;;
58820;SDS011;70670;52.476;13.334;2024-03-07T06:25:35;67.43;;;29.52;;
58820;SDS011;70670;52.476;13.334;2024-03-07T06:28:16;82.22;;;32.17;;
58820;SDS011;70670;52.476;13.334;2024-03-07T06:30:46;82.20;;;31.60;;
58820;SDS011;70670;52.476;13.334;2024-03-07T06:33:12;74.43;;;32.40;;
58820;SDS011;70670;52.476;13.334;2024-03-07T06:35:39;76.95;;;29.35;;
58820;SDS011;70670;52.476;13.334;2024-03-07T06:38:05;69.57;;;29.75;;
58820;SDS011;70670;52.476;13.334;2024-03-07T06:40:32;78.63;;;31.45;;
58820;SDS011;70670;52.476;13.334;2024-03-07T06:43:00;77.28;;;29.45;;
58820;SDS011;70670;52.476;13.334;2024-03-07T06:45:29;67.00;;;29.42;;
58820;SDS011;70670;52.476;13.334;2024-03-07T06:47:55;71.30;;;28.13;;
58820;SDS011;70670;52.476;13.334;2024-03-07T06:50:21;57.45;;;27.20;;
58820;SDS011;70670;52.476;13.334;2024-03-07T06:52:47;58.95;;;26.75;;
58820;SDS011;70670;52.476;13.334;2024-03-07T06:55:14;58.03;;;26.05;;
58820;SDS011;70670;52.476;13.334;2024-03-07T06:57:43;47.00;;;22.80;;
58820;SDS011;70670;52.476;13.334;2024-03-07T07:00:13;52.63;;;23.98;;
58820;SDS011;70670;52.476;13.334;2024-03-07T07:02:44;45.10;;;22.52;;
58820;SDS011;70670;52.476;13.334;2024-03-07T07:05:10;46.78;;;24.42;;
58820;SDS011;70670;52.476;13.334;2024-03-07T07:07:41;50.22;;;23.25;;
58820;SDS011;70670;52.476;13.334;2024-03-07T07:10:07;52.38;;;23.17;;
58820;SDS011;70670;52.476;13.334;2024-03-07T07:12:36;49.72;;;22.42;;
58820;SDS011;70670;52.476;13.334;2024-03-07T07:15:02;52.92;;;21.58;;
58820;SDS011;70670;52.476;13.334;2024-03-07T07:17:29;50.85;;;20.77;;
58820;SDS011;70670;52.476;13.334;2024-03-07T07:19:58;46.03;;;21.00;;
58820;SDS011;70670;52.476;13.334;2024-03-07T07:22:24;49.67;;;22.03;;
58820;SDS011;70670;52.476;13.334;2024-03-07T07:24:50;48.00;;;20.55;;
58820;SDS011;70670;52.476;13.334;2024-03-07T07:27:16;37.03;;;19.17;;
58820;SDS011;70670;52.476;13.334;2024-03-07T07:29:44;36.97;;;19.10;;
58820;SDS011;70670;52.476;13.334;2024-03-07T07:32:09;39.67;;;19.50;;
58820;SDS011;70670;52.476;13.334;2024-03-07T07:34:38;37.53;;;18.20;;
58820;SDS011;70670;52.476;13.334;2024-03-07T07:37:04;34.38;;;19.02;;
58820;SDS011;70670;52.476;13.334;2024-03-07T07:39:30;40.90;;;19.50;;
58820;SDS011;70670;52.476;13.334;2024-03-07T07:41:56;35.30;;;18.38;;
58820;SDS011;70670;52.476;13.334;2024-03-07T07:44:22;32.25;;;17.83;;
58820;SDS011;70670;52.476;13.334;2024-03-07T07:46:48;37.63;;;17.45;;
58820;SDS011;70670;52.476;13.334;2024-03-07T07:49:15;43.08;;;19.05;;
58820;SDS011;70670;52.476;13.334;2024-03-07T07:51:41;45.97;;;19.42;;
58820;SDS011;70670;52.476;13.334;2024-03-07T07:54:07;33.58;;;17.88;;
58820;SDS011;70670;52.476;13.334;2024-03-07T07:56:34;43.03;;;20.42;;
58820;SDS011;70670;52.476;13.334;2024-03-07T07:59:01;39.00;;;17.08;;
58820;SDS011;70670;52.476;13.334;2024-03-07T08:01:28;40.67;;;17.63;;
58820;SDS011;70670;52.476;13.334;2024-03-07T08:03:54;35.03;;;16.95;;
58820;SDS011;70670;52.476;13.334;2024-03-07T08:06:19;38.50;;;19.42;;
58820;SDS011;70670;52.476;13.334;2024-03-07T08:08:46;35.80;;;17.40;;
58820;SDS011;70670;52.476;13.334;2024-03-07T08:11:11;35.63;;;17.85;;
58820;SDS011;70670;52.476;13.334;2024-03-07T08:13:39;31.70;;;17.25;;
58820;SDS011;70670;52.476;13.334;2024-03-07T08:16:05;33.38;;;17.13;;
58820;SDS011;70670;52.476;13.334;2024-03-07T08:18:32;29.77;;;16.40;;
58820;SDS011;70670;52.476;13.334;2024-03-07T08:20:57;37.58;;;16.92;;
58820;SDS011;70670;52.476;13.334;2024-03-07T08:23:23;35.90;;;17.38;;
58820;SDS011;70670;52.476;13.334;2024-03-07T08:25:54;42.63;;;18.58;;
58820;SDS011;70670;52.476;13.334;2024-03-07T08:28:20;39.40;;;17.10;;
58820;SDS011;70670;52.476;13.334;2024-03-07T08:30:45;31.60;;;16.20;;
58820;SDS011;70670;52.476;13.334;2024-03-07T08:33:11;35.88;;;16.95;;
58820;SDS011;70670;52.476;13.334;2024-03-07T08:35:38;34.67;;;15.68;;
58820;SDS011;70670;52.476;13.334;2024-03-07T08:38:05;30.77;;;15.80;;
58820;SDS011;70670;52.476;13.334;2024-03-07T08:40:30;26.60;;;15.30;;
58820;SDS011;70670;52.476;13.334;2024-03-07T08:42:57;30.83;;;16.00;;
58820;SDS011;70670;52.476;13.334;2024-03-07T08:45:24;28.63;;;15.05;;
58820;SDS011;70670;52.476;13.334;2024-03-07T08:47:52;33.08;;;15.38;;
58820;SDS011;70670;52.476;13.334;2024-03-07T08:50:21;28.23;;;13.60;;
58820;SDS011;70670;52.476;13.334;2024-03-07T08:52:49;25.90;;;14.35;;
58820;SDS011;70670;52.476;13.334;2024-03-07T08:55:15;28.75;;;15.77;;
58820;SDS011;70670;52.476;13.334;2024-03-07T08:57:42;30.35;;;13.70;;
58820;SDS011;70670;52.476;13.334;2024-03-07T09:00:11;55.85;;;15.32;;
58820;SDS011;70670;52.476;13.334;2024-03-07T09:02:41;29.65;;;14.95;;
58820;SDS011;70670;52.476;13.334;2024-03-07T09:05:07;27.27;;;13.95;;
58820;SDS011;70670;52.476;13.334;2024-03-07T09:07:35;31.85;;;14.20;;
58820;SDS011;70670;52.476;13.334;2024-03-07T09:10:01;28.02;;;13.45;;
58820;SDS011;70670;52.476;13.334;2024-03-07T09:12:27;27.38;;;13.93;;
58820;SDS011;70670;52.476;13.334;2024-03-07T09:14:53;29.10;;;13.07;;
58820;SDS011;70670;52.476;13.334;2024-03-07T09:17:19;26.90;;;13.40;;
58820;SDS011;70670;52.476;13.334;2024-03-07T09:19:45;26.17;;;13.45;;
58820;SDS011;70670;52.476;13.334;2024-03-07T09:22:11;34.08;;;13.38;;
58820;SDS011;70670;52.476;13.334;2024-03-07T09:24:36;28.92;;;12.75;;
58820;SDS011;70670;52.476;13.334;2024-03-07T09:27:05;29.13;;;13.75;;
58820;SDS011;70670;52.476;13.334;2024-03-07T09:29:31;28.75;;;14.15;;
58820;SDS011;70670;52.476;13.334;2024-03-07T09:31:56;24.52;;;13.60;;
58820;SDS011;70670;52.476;13.334;2024-03-07T09:34:25;22.67;;;13.00;;
58820;SDS011;70670;52.476;13.334;2024-03-07T09:36:51;24.05;;;12.05;;
58820;SDS011;70670;52.476;13.334;2024-03-07T09:39:17;22.30;;;11.95;;
58820;SDS011;70670;52.476;13.334;2024-03-07T09:41:44;22.88;;;13.20;;
58820;SDS011;70670;52.476;13.334;2024-03-07T09:44:10;25.33;;;12.10;;
58820;SDS011;70670;52.476;13.334;2024-03-07T09:46:39;23.02;;;13.48;;
58820;SDS011;70670;52.476;13.334;2024-03-07T09:49:05;26.95;;;12.40;;
58820;SDS011;70670;52.476;13.334;2024-03-07T09:51:35;25.03;;;11.33;;
58820;SDS011;70670;52.476;13.334;2024-03-07T09:54:00;23.13;;;11.50;;
58820;SDS011;70670;52.476;13.334;2024-03-07T09:56:27;19.85;;;11.38;;
58820;SDS011;70670;52.476;13.334;2024-03-07T09:58:57;33.05;;;11.73;;
58820;SDS011;70670;52.476;13.334;2024-03-07T10:01:27;27.03;;;12.70;;
58820;SDS011;70670;52.476;13.334;2024-03-07T10:03:59;25.77;;;11.18;;
58820;SDS011;70670;52.476;13.334;2024-03-07T10:06:40;20.38;;;10.70;;
58820;SDS011;70670;52.476;13.334;2024-03-07T10:09:06;21.70;;;11.40;;
58820;SDS011;70670;52.476;13.334;2024-03-07T10:11:33;18.52;;;9.68;;
58820;SDS011;70670;52.476;13.334;2024-03-07T10:13:59;28.85;;;10.52;;
58820;SDS011;70670;52.476;13.334;2024-03-07T10:16:25;28.95;;;11.85;;
58820;SDS011;70670;52.476;13.334;2024-03-07T10:18:51;20.50;;;10.98;;
58820;SDS011;70670;52.476;13.334;2024-03-07T10:21:20;24.08;;;10.13;;
58820;SDS011;70670;52.476;13.334;2024-03-07T10:23:46;17.67;;;10.20;;
58820;SDS011;70670;52.476;13.334;2024-03-07T10:26:12;19.38;;;11.25;;
58820;SDS011;70670;52.476;13.334;2024-03-07T10:28:38;23.60;;;11.57;;
58820;SDS011;70670;52.476;13.334;2024-03-07T10:31:04;27.35;;;10.68;;
58820;SDS011;70670;52.476;13.334;2024-03-07T10:33:39;22.30;;;10.85;;
58820;SDS011;70670;52.476;13.334;2024-03-07T10:38:36;40.97;;;12.65;;
58820;SDS011;70670;52.476;13.334;2024-03-07T10:41:02;21.75;;;9.88;;
58820;SDS011;70670;52.476;13.334;2024-03-07T10:43:29;14.98;;;9.68;;
58820;SDS011;70670;52.476;13.334;2024-03-07T10:45:54;39.38;;;9.98;;
58820;SDS011;70670;52.476;13.334;2024-03-07T10:48:22;21.58;;;9.70;;
58820;SDS011;70670;52.476;13.334;2024-03-07T10:50:59;26.42;;;10.80;;
58820;SDS011;70670;52.476;13.334;2024-03-07T10:56:33;27.23;;;11.10;;
58820;SDS011;70670;52.476;13.334;2024-03-07T10:59:17;25.52;;;12.23;;
58820;SDS011;70670;52.476;13.334;2024-03-07T11:01:53;26.77;;;10.43;;
58820;SDS011;70670;52.476;13.334;2024-03-07T11:04:29;18.67;;;10.95;;
58820;SDS011;70670;52.476;13.334;2024-03-07T11:06:55;20.77;;;10.27;;
58820;SDS011;70670;52.476;13.334;2024-03-07T11:09:21;24.75;;;10.57;;
58820;SDS011;70670;52.476;13.334;2024-03-07T11:11:50;17.42;;;10.55;;
58820;SDS011;70670;52.476;13.334;2024-03-07T11:14:15;23.38;;;10.32;;
58820;SDS011;70670;52.476;13.334;2024-03-07T11:16:43;34.17;;;11.45;;
58820;SDS011;70670;52.476;13.334;2024-03-07T11:19:26;22.45;;;10.57;;
58820;SDS011;70670;52.476;13.334;2024-03-07T11:21:53;21.25;;;11.27;;
58820;SDS011;70670;52.476;13.334;2024-03-07T11:24:24;29.55;;;10.68;;
58820;SDS011;70670;52.476;13.334;2024-03-07T11:26:56;20.55;;;11.73;;
58820;SDS011;70670;52.476;13.334;2024-03-07T11:29:46;24.80;;;11.98;;
58820;SDS011;70670;52.476;13.334;2024-03-07T11:32:13;18.73;;;10.20;;
58820;SDS011;70670;52.476;13.334;2024-03-07T11:34:40;22.30;;;12.23;;
58820;SDS011;70670;52.476;13.334;2024-03-07T11:37:07;31.60;;;12.20;;
58820;SDS011;70670;52.476;13.334;2024-03-07T11:39:46;21.13;;;11.32;;
58820;SDS011;70670;52.476;13.334;2024-03-07T11:42:28;20.35;;;10.98;;
58820;SDS011;70670;52.476;13.334;2024-03-07T11:44:56;16.67;;;11.15;;
58820;SDS011;70670;52.476;13.334;2024-03-07T11:47:26;17.48;;;10.70;;
58820;SDS011;70670;52.476;13.334;2024-03-07T11:49:55;23.15;;;11.88;;
58820;SDS011;70670;52.476;13.334;2024-03-07T11:52:23;24.23;;;10.82;;
58820;SDS011;70670;52.476;13.334;2024-03-07T11:54:49;22.88;;;10.65;;
58820;SDS011;70670;52.476;13.334;2024-03-07T11:57:17;19.00;;;10.32;;
58820;SDS011;70670;52.476;13.334;2024-03-07T11:59:51;15.68;;;10.18;;
58820;SDS011;70670;52.476;13.334;2024-03-07T12:02:18;17.90;;;11.45;;
58820;SDS011;70670;52.476;13.334;2024-03-07T12:04:48;25.10;;;11.93;;
58820;SDS011;70670;52.476;13.334;2024-03-07T12:07:16;17.50;;;10.85;;
58820;SDS011;70670;52.476;13.334;2024-03-07T12:09:48;21.63;;;11.07;;
58820;SDS011;70670;52.476;13.334;2024-03-07T12:12:20;20.42;;;11.10;;
58820;SDS011;70670;52.476;13.334;2024-03-07T12:14:54;21.35;;;11.15;;
58820;SDS011;70670;52.476;13.334;2024-03-07T12:17:21;21.35;;;11.25;;
58820;SDS011;70670;52.476;13.334;2024-03-07T12:19:48;20.48;;;12.13;;
58820;SDS011;70670;52.476;13.334;2024-03-07T12:22:18;24.88;;;13.43;;
58820;SDS011;70670;52.476;13.334;2024-03-07T12:24:48;23.73;;;11.32;;
58820;SDS011;70670;52.476;13.334;2024-03-07T12:27:27;36.20;;;11.65;;
58820;SDS011;70670;52.476;13.334;2024-03-07T12:29:53;19.20;;;11.48;;
58820;SDS011;70670;52.476;13.334;2024-03-07T12:32:19;27.25;;;12.93;;
58820;SDS011;70670;52.476;13.334;2024-03-07T12:34:46;26.70;;;10.90;;
58820;SDS011;70670;52.476;13.334;2024-03-07T12:37:12;17.77;;;10.55;;
58820;SDS011;70670;52.476;13.334;2024-03-07T12:39:41;19.35;;;11.48;;
58820;SDS011;70670;52.476;13.334;2024-03-07T12:42:15;17.88;;;11.55;;
58820;SDS011;70670;52.476;13.334;2024-03-07T12:44:45;19.20;;;11.60;;
58820;SDS011;70670;52.476;13.334;2024-03-07T12:47:12;20.30;;;12.32;;
58820;SDS011;70670;52.476;13.334;2024-03-07T12:49:39;20.45;;;11.65;;
58820;SDS011;70670;52.476;13.334;2024-03-07T12:52:11;18.25;;;11.48;;
58820;SDS011;70670;52.476;13.334;2024-03-07T12:54:40;19.67;;;11.13;;
58820;SDS011;70670;52.476;13.334;2024-03-07T12:57:07;25.23;;;11.73;;
58820;SDS011;70670;52.476;13.334;2024-03-07T12:59:40;20.90;;;11.85;;
58820;SDS011;70670;52.476;13.334;2024-03-07T13:02:07;22.42;;;11.57;;
58820;SDS011;70670;52.476;13.334;2024-03-07T13:04:36;19.40;;;11.57;;
58820;SDS011;70670;52.476;13.334;2024-03-07T13:07:05;29.58;;;12.30;;
58820;SDS011;70670;52.476;13.334;2024-03-07T13:09:32;27.75;;;14.23;;
58820;SDS011;70670;52.476;13.334;2024-03-07T13:12:01;26.50;;;13.65;;
58820;SDS011;70670;52.476;13.334;2024-03-07T13:14:29;22.02;;;13.07;;
58820;SDS011;70670;52.476;13.334;2024-03-07T13:19:27;28.30;;;12.90;;
58820;SDS011;70670;52.476;13.334;2024-03-07T13:21:54;28.63;;;12.23;;
58820;SDS011;70670;52.476;13.334;2024-03-07T13:24:21;23.27;;;13.05;;
58820;SDS011;70670;52.476;13.334;2024-03-07T13:26:48;26.52;;;13.05;;
58820;SDS011;70670;52.476;13.334;2024-03-07T13:29:14;26.30;;;14.00;;
58820;SDS011;70670;52.476;13.334;2024-03-07T13:31:40;34.75;;;14.02;;
58820;SDS011;70670;52.476;13.334;2024-03-07T13:34:11;21.55;;;14.18;;
58820;SDS011;70670;52.476;13.334;2024-03-07T13:36:40;30.08;;;15.13;;
58820;SDS011;70670;52.476;13.334;2024-03-07T13:39:06;25.08;;;13.57;;
58820;SDS011;70670;52.476;13.334;2024-03-07T13:41:37;21.98;;;13.73;;
58820;SDS011;70670;52.476;13.334;2024-03-07T13:44:03;20.75;;;12.07;;
58820;SDS011;70670;52.476;13.334;2024-03-07T13:46:30;19.58;;;11.95;;
58820;SDS011;70670;52.476;13.334;2024-03-07T13:48:58;28.33;;;11.95;;
58820;SDS011;70670;52.476;13.334;2024-03-07T13:51:33;21.52;;;11.75;;
58820;SDS011;70670;52.476;13.334;2024-03-07T13:54:02;18.27;;;11.27;;
58820;SDS011;70670;52.476;13.334;2024-03-07T13:59:47;37.63;;;12.10;;
58820;SDS011;70670;52.476;13.334;2024-03-07T14:05:44;23.65;;;11.90;;
58820;SDS011;70670;52.476;13.334;2024-03-07T14:20:59;25.25;;;12.27;;
58820;SDS011;70670;52.476;13.334;2024-03-07T14:23:45;25.13;;;12.45;;
58820;SDS011;70670;52.476;13.334;2024-03-07T14:26:45;20.20;;;12.13;;
58820;SDS011;70670;52.476;13.334;2024-03-07T14:29:42;23.10;;;12.48;;
58820;SDS011;70670;52.476;13.334;2024-03-07T14:32:12;22.67;;;12.70;;
58820;SDS011;70670;52.476;13.334;2024-03-07T14:34:49;26.70;;;13.88;;
58820;SDS011;70670;52.476;13.334;2024-03-07T14:37:25;24.73;;;12.63;;
58820;SDS011;70670;52.476;13.334;2024-03-07T14:39:56;22.20;;;12.75;;
58820;SDS011;70670;52.476;13.334;2024-03-07T14:42:36;24.17;;;12.75;;